Time;durP1;ratioP1;P1;durP2;ratioP2;P2;SDS_P1;SDS_P2;PMS_P1;PMS_P2;Temp;Humidity;BMP_temperature;BMP_pressure;BME280_temperature;BME280_humidity;BME280_pressure;Samples;Min_cycle;Max_cycle;Signal;HPM_P1;HPM_P2
2022/11/21 00:01:00;;;;;;;3.73;2.07;;;4.60;99.90;;;;;;5031103;28;20831;-88
2022/11/21 00:03:27;;;;;;;2.07;1.97;;;4.60;99.90;;;;;;5022273;28;20198;-88
2022/11/21 00:05:55;;;;;;;1.20;1.20;;;4.60;99.90;;;;;;5035940;28;20660;-87
2022/11/21 00:08:22;;;;;;;1.00;1.00;;;4.60;99.70;;;;;;5044087;28;20210;-87
2022/11/21 00:10:51;;;;;;;1.90;1.80;;;4.60;99.80;;;;;;5020739;28;20224;-88
2022/11/21 00:13:20;;;;;;;2.17;1.97;;;4.70;99.80;;;;;;5018774;28;20253;-87
2022/11/21 00:15:50;;;;;;;1.90;1.80;;;4.70;99.30;;;;;;5028940;28;20204;-87
2022/11/21 00:18:17;;;;;;;2.20;2.10;;;4.70;99.50;;;;;;5023498;28;20208;-89
2022/11/21 00:20:47;;;;;;;2.00;1.90;;;4.70;99.50;;;;;;5024249;28;20198;-88
2022/11/21 00:23:16;;;;;;;1.97;1.87;;;4.80;99.00;;;;;;5019413;28;20210;-88
2022/11/21 00:25:44;;;;;;;1.87;1.77;;;4.80;99.00;;;;;;5024508;28;20280;-87
2022/11/21 00:28:11;;;;;;;2.13;2.03;;;4.70;99.30;;;;;;5025473;28;20201;-87
2022/11/21 00:30:38;;;;;;;2.60;1.97;;;4.70;99.30;;;;;;5023349;28;20896;-87
2022/11/21 00:33:05;;;;;;;2.03;1.93;;;4.80;98.70;;;;;;5025146;28;20213;-87
2022/11/21 00:35:32;;;;;;;2.27;2.17;;;4.70;99.10;;;;;;5025399;28;20722;-87
2022/11/21 00:37:59;;;;;;;2.00;1.90;;;4.70;98.90;;;;;;5023738;28;21214;-86
2022/11/21 00:40:27;;;;;;;2.47;1.80;;;4.80;98.60;;;;;;5027255;28;20203;-86
2022/11/21 00:42:54;;;;;;;1.90;1.80;;;4.80;98.60;;;;;;5025379;28;20297;-86
2022/11/21 00:45:21;;;;;;;1.83;1.73;;;4.80;98.90;;;;;;5030835;28;20210;-89
2022/11/21 00:47:48;;;;;;;1.90;1.80;;;4.90;98.60;;;;;;5024977;28;20324;-89
2022/11/21 00:50:16;;;;;;;1.90;1.80;;;4.80;99.00;;;;;;5023595;28;20202;-90
2022/11/21 00:52:45;;;;;;;1.00;0.90;;;4.80;99.00;;;;;;5040932;28;20275;-88
2022/11/21 00:55:12;;;;;;;0.97;0.97;;;4.90;98.60;;;;;;5039017;28;20289;-88
2022/11/21 00:57:41;;;;;;;0.80;0.80;;;4.90;98.50;;;;;;5040744;28;20351;-88
2022/11/21 01:00:09;;;;;;;0.80;0.80;;;4.90;98.30;;;;;;5042333;28;20229;-88
2022/11/21 01:02:36;;;;;;;1.03;0.90;;;4.90;98.50;;;;;;5041527;28;20670;-88
2022/11/21 01:05:03;;;;;;;1.50;1.40;;;4.90;98.40;;;;;;5042130;28;20204;-88
2022/11/21 01:07:31;;;;;;;2.23;2.13;;;4.80;98.30;;;;;;5037036;28;20329;-88
2022/11/21 01:09:58;;;;;;;1.33;1.23;;;4.90;98.40;;;;;;5031356;28;20271;-88
2022/11/21 01:12:25;;;;;;;2.83;1.27;;;4.90;98.10;;;;;;5040197;28;20594;-88
2022/11/21 01:14:54;;;;;;;1.00;0.90;;;4.80;98.50;;;;;;5034216;28;20426;-88
2022/11/21 01:17:21;;;;;;;0.97;0.97;;;4.90;98.50;;;;;;5045844;28;20198;-88
2022/11/21 01:19:51;;;;;;;1.20;1.10;;;4.90;98.90;;;;;;5047254;28;20204;-88
2022/11/21 01:22:18;;;;;;;1.27;1.10;;;4.90;99.00;;;;;;5047671;28;20285;-88
2022/11/21 01:24:46;;;;;;;0.90;0.90;;;5.00;98.80;;;;;;5045155;28;20785;-88
2022/11/21 01:27:13;;;;;;;0.70;0.70;;;5.00;98.60;;;;;;5045823;28;20221;-88
2022/11/21 01:29:40;;;;;;;1.00;1.00;;;5.00;98.40;;;;;;5049885;28;20193;-88
2022/11/21 01:32:08;;;;;;;0.90;0.90;;;5.00;98.70;;;;;;5045342;28;20228;-88
2022/11/21 01:34:35;;;;;;;1.07;0.97;;;5.00;98.60;;;;;;5042036;28;20424;-88
2022/11/21 01:37:03;;;;;;;0.90;0.90;;;5.10;99.00;;;;;;5046600;28;20336;-88
2022/11/21 01:39:30;;;;;;;2.70;1.10;;;5.10;98.40;;;;;;5047710;28;20229;-88
2022/11/21 01:41:57;;;;;;;0.97;0.93;;;5.10;98.10;;;;;;5047405;28;20283;-88
2022/11/21 01:44:26;;;;;;;1.40;0.90;;;5.20;97.70;;;;;;5048265;28;20289;-88
2022/11/21 01:46:53;;;;;;;1.40;1.30;;;5.10;97.70;;;;;;5042949;28;20753;-88
2022/11/21 01:49:25;;;;;;;0.93;0.93;;;5.10;98.00;;;;;;5047626;28;20304;-88
2022/11/21 01:51:55;;;;;;;1.20;1.10;;;5.10;98.30;;;;;;5042987;28;20676;-88
2022/11/21 01:54:27;;;;;;;0.80;0.80;;;5.10;98.10;;;;;;5045459;28;20230;-88
2022/11/21 01:57:00;;;;;;;1.40;1.17;;;5.20;97.70;;;;;;5046664;28;20197;-88
2022/11/21 01:59:31;;;;;;;1.20;1.10;;;5.30;97.90;;;;;;5041546;28;20554;-88
2022/11/21 02:02:01;;;;;;;1.00;1.00;;;5.20;98.20;;;;;;5043743;28;20194;-88
2022/11/21 02:04:32;;;;;;;1.00;1.00;;;5.30;97.80;;;;;;5046910;28;20207;-88
2022/11/21 02:07:01;;;;;;;1.17;1.07;;;5.40;97.70;;;;;;5041755;28;20647;-87
2022/11/21 02:09:30;;;;;;;1.40;1.30;;;5.40;97.50;;;;;;5051756;28;20696;-88
2022/11/21 02:12:01;;;;;;;1.13;1.13;;;5.40;97.40;;;;;;5041236;28;20191;-88
2022/11/21 02:14:29;;;;;;;1.30;1.20;;;5.40;96.90;;;;;;5037713;28;20225;-88
2022/11/21 02:17:00;;;;;;;1.83;1.07;;;5.40;96.90;;;;;;5050669;28;20204;-88
2022/11/21 02:19:34;;;;;;;1.60;1.30;;;5.40;96.60;;;;;;5047281;28;20194;-88
2022/11/21 02:22:07;;;;;;;2.07;1.20;;;5.40;96.90;;;;;;5048965;28;20225;-88
2022/11/21 02:24:41;;;;;;;1.20;1.10;;;5.30;96.90;;;;;;5042033;28;20208;-89
2022/11/21 02:27:10;;;;;;;0.90;0.90;;;5.20;97.20;;;;;;5041081;28;20292;-88
2022/11/21 02:29:37;;;;;;;2.20;1.00;;;5.10;97.20;;;;;;5044134;28;20629;-89
2022/11/21 02:32:05;;;;;;;1.20;1.10;;;5.10;97.20;;;;;;5040535;28;20194;-85
2022/11/21 02:34:33;;;;;;;1.83;1.20;;;5.10;96.90;;;;;;5044104;28;20217;-88
2022/11/21 02:37:01;;;;;;;1.67;1.10;;;5.00;97.10;;;;;;5045926;28;20324;-88
2022/11/21 02:39:32;;;;;;;2.23;1.30;;;5.00;97.50;;;;;;5040011;28;20239;-87
2022/11/21 02:42:05;;;;;;;1.27;1.17;;;5.00;97.20;;;;;;5044280;28;20198;-87
2022/11/21 02:44:39;;;;;;;1.67;1.10;;;5.10;97.60;;;;;;5040911;28;20759;-88
2022/11/21 02:47:06;;;;;;;2.47;1.10;;;5.00;97.40;;;;;;5044559;28;20569;-87
2022/11/21 02:49:40;;;;;;;2.33;1.10;;;5.10;97.20;;;;;;5047682;28;20313;-87
2022/11/21 02:52:07;;;;;;;1.17;1.00;;;5.00;97.50;;;;;;5039498;28;20207;-87
2022/11/21 02:54:34;;;;;;;0.93;0.90;;;5.10;97.00;;;;;;5047874;28;20488;-87
2022/11/21 02:57:01;;;;;;;1.40;1.07;;;5.00;96.90;;;;;;5044840;28;20198;-87
2022/11/21 02:59:28;;;;;;;3.07;1.10;;;5.10;96.70;;;;;;5044134;28;20564;-87
2022/11/21 03:01:59;;;;;;;2.10;1.10;;;5.00;97.00;;;;;;5043766;28;20288;-88
2022/11/21 03:04:27;;;;;;;1.50;1.27;;;5.10;96.60;;;;;;5043237;28;20202;-87
2022/11/21 03:06:58;;;;;;;2.80;1.47;;;5.00;96.80;;;;;;5045167;28;20233;-87
2022/11/21 03:09:25;;;;;;;1.30;0.90;;;5.10;96.80;;;;;;5046240;28;20295;-87
2022/11/21 03:11:52;;;;;;;1.47;1.00;;;5.20;96.80;;;;;;5047176;28;20220;-87
2022/11/21 03:14:18;;;;;;;1.37;0.80;;;5.30;96.70;;;;;;5047477;28;20313;-89
2022/11/21 03:16:45;;;;;;;1.90;1.00;;;5.30;96.60;;;;;;5042150;28;20811;-87
2022/11/21 03:19:23;;;;;;;2.60;1.00;;;5.30;96.60;;;;;;5050383;28;20201;-88
2022/11/21 03:21:50;;;;;;;1.17;1.07;;;5.30;96.30;;;;;;5045986;28;20197;-88
2022/11/21 03:24:17;;;;;;;1.20;0.87;;;5.30;95.90;;;;;;5043531;28;20728;-88
2022/11/21 03:26:43;;;;;;;2.00;1.10;;;5.30;95.90;;;;;;5046602;28;20285;-87
2022/11/21 03:29:10;;;;;;;1.80;1.00;;;5.20;95.70;;;;;;5048681;28;20368;-87
2022/11/21 03:31:37;;;;;;;3.00;1.07;;;5.10;96.10;;;;;;5042465;28;20198;-87
2022/11/21 03:34:04;;;;;;;1.63;1.10;;;5.00;96.30;;;;;;5048004;28;20706;-88
2022/11/21 03:36:32;;;;;;;2.80;1.00;;;5.00;96.10;;;;;;5042647;28;20677;-87
2022/11/21 03:38:59;;;;;;;1.33;1.20;;;4.90;96.20;;;;;;5047147;28;20194;-87
2022/11/21 03:41:30;;;;;;;2.00;1.20;;;4.80;96.40;;;;;;5046651;28;20543;-87
2022/11/21 03:43:57;;;;;;;1.13;1.10;;;4.80;96.80;;;;;;5045327;28;20244;-86
2022/11/21 03:46:24;;;;;;;3.07;1.27;;;4.70;97.00;;;;;;5042846;28;20198;-88
2022/11/21 03:48:51;;;;;;;3.10;1.13;;;4.60;97.40;;;;;;5045372;28;20206;-87
2022/11/21 03:51:19;;;;;;;1.47;1.13;;;4.70;97.20;;;;;;5038166;28;20210;-88
2022/11/21 03:53:47;;;;;;;2.20;1.70;;;4.70;97.00;;;;;;5046427;28;20317;-87
2022/11/21 03:56:16;;;;;;;3.00;1.50;;;4.70;97.00;;;;;;5048607;28;20285;-87
2022/11/21 03:58:43;;;;;;;1.90;1.20;;;4.70;96.70;;;;;;5041985;28;20202;-87
2022/11/21 04:01:11;;;;;;;1.77;1.00;;;4.70;97.00;;;;;;5045475;28;20563;-88
2022/11/21 04:03:39;;;;;;;5.30;1.37;;;4.70;97.10;;;;;;5043396;28;20221;-87
2022/11/21 04:06:06;;;;;;;2.13;1.10;;;4.60;97.30;;;;;;5046160;28;20284;-87
2022/11/21 04:08:33;;;;;;;1.20;0.90;;;4.60;97.30;;;;;;5042772;28;20633;-87
2022/11/21 04:11:01;;;;;;;1.27;0.90;;;4.70;97.40;;;;;;5045661;28;20194;-87
2022/11/21 04:13:29;;;;;;;1.53;1.03;;;4.70;96.90;;;;;;5046013;28;20225;-87
2022/11/21 04:15:55;;;;;;;1.77;1.17;;;4.80;96.70;;;;;;5043862;28;20191;-87
2022/11/21 04:18:22;;;;;;;2.13;1.20;;;4.90;96.80;;;;;;5042660;28;20206;-87
2022/11/21 04:20:56;;;;;;;1.30;1.20;;;4.90;96.40;;;;;;5038596;28;20198;-88
2022/11/21 04:23:23;;;;;;;1.87;1.57;;;5.00;96.10;;;;;;5045160;28;20212;-88
2022/11/21 04:25:50;;;;;;;3.03;1.17;;;5.00;95.60;;;;;;5040910;28;20220;-87
2022/11/21 04:28:18;;;;;;;2.50;1.47;;;5.10;95.10;;;;;;5044269;28;20189;-87
2022/11/21 04:30:45;;;;;;;1.93;1.23;;;5.10;95.10;;;;;;5045061;28;20205;-88
2022/11/21 04:33:14;;;;;;;1.90;1.07;;;5.10;95.10;;;;;;5046092;28;20210;-87
2022/11/21 04:35:42;;;;;;;3.63;1.20;;;5.20;95.10;;;;;;5044522;28;20190;-87
2022/11/21 04:38:09;;;;;;;1.83;1.17;;;5.20;95.10;;;;;;5046410;28;20284;-87
2022/11/21 04:40:40;;;;;;;3.30;1.40;;;5.30;95.10;;;;;;5044781;28;20194;-87
2022/11/21 04:43:07;;;;;;;3.40;1.20;;;5.30;95.00;;;;;;5047149;28;20198;-87
2022/11/21 04:45:43;;;;;;;3.93;1.30;;;5.30;95.10;;;;;;5034556;28;20312;-87
2022/11/21 04:48:10;;;;;;;3.37;1.20;;;5.30;95.10;;;;;;5046245;28;20263;-87
2022/11/21 04:50:37;;;;;;;1.83;1.23;;;5.30;95.10;;;;;;5048946;28;20555;-87
2022/11/21 04:53:04;;;;;;;3.47;1.67;;;5.30;95.50;;;;;;5045909;28;20237;-87
2022/11/21 04:55:32;;;;;;;4.00;1.10;;;5.30;95.90;;;;;;5048906;28;20221;-87
2022/11/21 04:58:00;;;;;;;2.50;0.90;;;5.30;96.10;;;;;;5047043;28;20297;-87
2022/11/21 05:00:27;;;;;;;4.33;1.03;;;5.20;96.20;;;;;;5050293;28;21745;-87
2022/11/21 05:02:55;;;;;;;6.57;1.47;;;5.20;97.00;;;;;;5045484;28;20679;-88
2022/11/21 05:05:22;;;;;;;2.70;1.27;;;5.20;96.90;;;;;;5050999;28;20294;-87
2022/11/21 05:07:49;;;;;;;2.73;1.00;;;5.20;97.30;;;;;;5049059;28;20288;-87
2022/11/21 05:10:16;;;;;;;2.43;1.03;;;5.20;97.20;;;;;;5051092;28;20194;-87
2022/11/21 05:15:27;;;;;;;3.03;1.00;;;5.10;97.60;;;;;;5045493;28;20224;-88
2022/11/21 05:17:58;;;;;;;5.40;1.40;;;5.10;97.80;;;;;;5049184;28;20559;-87
2022/11/21 05:20:25;;;;;;;3.73;1.40;;;5.00;97.70;;;;;;5050228;28;20212;-87
2022/11/21 05:22:52;;;;;;;2.70;0.87;;;5.00;97.90;;;;;;5046146;28;20217;-87
2022/11/21 05:25:19;;;;;;;1.97;1.20;;;5.00;98.00;;;;;;5048717;28;20284;-87
2022/11/21 05:27:46;;;;;;;1.70;1.27;;;4.90;97.80;;;;;;5047542;28;20580;-87
2022/11/21 05:30:13;;;;;;;1.30;1.00;;;4.90;98.10;;;;;;5048304;28;21101;-87
2022/11/21 05:32:40;;;;;;;3.80;1.33;;;4.90;98.20;;;;;;5046127;28;20202;-87
2022/11/21 05:35:09;;;;;;;2.20;0.97;;;4.90;98.30;;;;;;5044603;28;20701;-87
2022/11/21 05:37:36;;;;;;;4.63;1.07;;;4.90;98.00;;;;;;5049204;28;20216;-87
2022/11/21 05:40:03;;;;;;;1.73;1.10;;;4.90;98.00;;;;;;5040703;28;20198;-87
2022/11/21 05:45:14;;;;;;;1.20;0.90;;;4.90;98.00;;;;;;5046927;28;20247;-87
2022/11/21 05:47:41;;;;;;;2.00;1.00;;;4.80;97.90;;;;;;5049258;28;20687;-87
2022/11/21 05:50:10;;;;;;;1.40;0.90;;;4.90;97.90;;;;;;5047797;28;20664;-88
2022/11/21 05:52:37;;;;;;;2.00;1.10;;;4.90;97.70;;;;;;5046879;28;20198;-89
2022/11/21 05:55:04;;;;;;;2.07;1.00;;;4.80;97.80;;;;;;5044957;28;20307;-89
2022/11/21 05:57:31;;;;;;;1.53;1.30;;;4.80;97.90;;;;;;5048419;28;20635;-90
2022/11/21 05:59:58;;;;;;;1.13;0.80;;;4.80;98.20;;;;;;5045696;28;20579;-90
2022/11/21 06:05:13;;;;;;;2.40;1.00;;;4.80;97.90;;;;;;4996094;28;20200;-89
2022/11/21 06:07:40;;;;;;;1.63;1.00;;;4.90;97.90;;;;;;4998599;28;20577;-89
2022/11/21 06:10:07;;;;;;;2.03;1.30;;;4.90;98.10;;;;;;5011054;28;20233;-89
2022/11/21 06:12:34;;;;;;;2.30;1.20;;;4.80;98.00;;;;;;5002098;28;20698;-89
2022/11/21 06:15:01;;;;;;;2.20;1.33;;;4.80;98.70;;;;;;5010591;28;20306;-90
2022/11/21 06:17:28;;;;;;;2.47;1.17;;;4.80;99.00;;;;;;5015117;28;20302;-90
2022/11/21 06:19:58;;;;;;;2.67;1.90;;;4.80;98.90;;;;;;4996281;28;20203;-91
2022/11/21 06:22:26;;;;;;;3.90;2.43;;;4.90;98.70;;;;;;4983119;28;20199;-92
2022/11/21 06:24:53;;;;;;;3.43;2.40;;;4.90;98.80;;;;;;4989684;28;20245;-88
2022/11/21 06:27:20;;;;;;;3.53;2.37;;;4.90;99.20;;;;;;4997833;28;20208;-90
2022/11/21 06:29:46;;;;;;;3.40;1.90;;;4.90;99.30;;;;;;4990147;28;20244;-90
2022/11/21 06:32:13;;;;;;;2.60;2.07;;;5.00;99.10;;;;;;4983678;28;20207;-91
2022/11/21 06:34:40;;;;;;;1.53;1.43;;;5.10;98.70;;;;;;5002776;28;20318;-89
2022/11/21 06:37:07;;;;;;;2.20;1.80;;;5.10;99.10;;;;;;4987667;28;20204;-90
2022/11/21 06:40:12;;;;;;;3.07;1.67;;;5.20;98.70;;;;;;5006464;28;20199;-94
2022/11/21 06:42:40;;;;;;;2.03;1.73;;;5.20;98.40;;;;;;5025302;28;20499;-94
2022/11/21 06:45:07;;;;;;;1.27;1.17;;;5.30;98.50;;;;;;5054595;28;20687;-91
2022/11/21 06:47:34;;;;;;;1.63;1.33;;;5.30;98.30;;;;;;5050217;28;20202;-91
2022/11/21 06:50:03;;;;;;;1.90;1.10;;;5.40;98.10;;;;;;5044707;28;20208;-92
2022/11/21 06:52:33;;;;;;;1.67;1.00;;;5.30;98.20;;;;;;5049185;28;20198;-90
2022/11/21 06:55:00;;;;;;;3.07;1.70;;;5.30;98.50;;;;;;5040677;28;20230;-92
2022/11/21 06:57:36;;;;;;;2.23;1.10;;;5.40;98.00;;;;;;5056767;28;20209;-91
2022/11/21 07:00:05;;;;;;;1.20;1.10;;;5.40;98.00;;;;;;5047580;28;20204;-91
2022/11/21 07:02:32;;;;;;;1.50;1.00;;;5.30;97.80;;;;;;5054328;28;20255;-91
2022/11/21 07:04:59;;;;;;;1.47;1.27;;;5.40;97.80;;;;;;5042164;28;20256;-90
2022/11/21 07:07:25;;;;;;;2.10;1.90;;;5.30;97.60;;;;;;5030483;28;20297;-91
2022/11/21 07:09:52;;;;;;;2.07;1.87;;;5.30;97.50;;;;;;5034997;28;20202;-91
2022/11/21 07:15:44;;;;;;;1.03;0.83;;;5.30;97.70;;;;;;5049712;28;20233;-94
2022/11/21 07:18:11;;;;;;;2.60;2.10;;;5.40;97.20;;;;;;5010868;28;20297;-91
2022/11/21 07:20:38;;;;;;;1.57;0.97;;;5.50;97.10;;;;;;5013268;28;20277;-92
2022/11/21 07:23:05;;;;;;;3.07;1.97;;;5.50;96.90;;;;;;5007896;28;20305;-90
2022/11/21 07:25:32;;;;;;;1.10;1.00;;;5.40;97.20;;;;;;5010229;28;20330;-90
2022/11/21 07:27:59;;;;;;;0.97;0.83;;;5.30;97.00;;;;;;5018860;28;20222;-91
2022/11/21 07:30:28;;;;;;;1.20;1.10;;;5.40;97.20;;;;;;5006765;28;20291;-89
2022/11/21 07:32:56;;;;;;;1.70;1.60;;;5.30;97.00;;;;;;5008595;28;20698;-89
2022/11/21 07:35:23;;;;;;;2.50;1.83;;;5.30;97.00;;;;;;4986946;28;20725;-87
2022/11/21 07:37:50;;;;;;;2.30;2.17;;;5.20;96.80;;;;;;4998642;28;20742;-90
2022/11/21 07:40:17;;;;;;;0.93;0.83;;;5.30;96.40;;;;;;5004417;28;20203;-88
2022/11/21 07:42:44;;;;;;;2.27;1.93;;;5.20;96.50;;;;;;4993974;28;20350;-89
2022/11/21 07:45:12;;;;;;;0.60;0.60;;;5.20;96.50;;;;;;5006637;28;20215;-88
2022/11/21 07:47:40;;;;;;;1.80;1.70;;;5.10;96.50;;;;;;4991892;28;20207;-89
2022/11/21 07:50:09;;;;;;;1.80;1.70;;;5.20;96.30;;;;;;5038278;28;20201;-87
2022/11/21 07:52:40;;;;;;;2.90;2.30;;;5.10;96.80;;;;;;5038572;28;20309;-91
2022/11/21 07:55:08;;;;;;;1.83;1.73;;;5.00;97.10;;;;;;5030431;28;20225;-89
2022/11/21 07:57:34;;;;;;;2.03;1.83;;;5.00;96.90;;;;;;5027682;28;20190;-90
2022/11/21 08:00:01;;;;;;;2.33;2.23;;;4.90;97.30;;;;;;5026499;28;20571;-89
2022/11/21 08:02:29;;;;;;;1.97;1.73;;;4.90;97.40;;;;;;5027118;28;20202;-91
2022/11/21 08:04:57;;;;;;;1.93;1.80;;;4.90;97.60;;;;;;5030590;28;20305;-88
2022/11/21 08:07:24;;;;;;;1.73;1.53;;;5.00;97.50;;;;;;5035375;28;20969;-90
2022/11/21 08:09:51;;;;;;;1.73;1.63;;;5.20;96.80;;;;;;5033968;28;20577;-88
2022/11/21 08:12:18;;;;;;;2.23;2.03;;;5.30;96.80;;;;;;5016733;28;20212;-91
2022/11/21 08:14:45;;;;;;;2.40;1.87;;;5.50;95.90;;;;;;5031880;28;20236;-88
2022/11/21 08:17:12;;;;;;;2.43;2.23;;;5.60;95.20;;;;;;5025567;28;20597;-88
2022/11/21 08:19:39;;;;;;;2.27;1.60;;;5.60;95.20;;;;;;5028973;28;20208;-92
2022/11/21 08:22:08;;;;;;;3.07;1.87;;;5.50;95.20;;;;;;5030164;28;20209;-89
2022/11/21 08:24:35;;;;;;;2.20;2.00;;;5.40;95.20;;;;;;5027933;28;20341;-89
2022/11/21 08:27:01;;;;;;;3.00;2.70;;;5.40;95.20;;;;;;5020698;28;20199;-88
2022/11/21 08:29:28;;;;;;;1.60;1.50;;;5.40;96.20;;;;;;5027906;28;20206;-89
2022/11/21 08:31:55;;;;;;;2.50;2.30;;;5.40;95.70;;;;;;5024637;28;20684;-89
2022/11/21 08:34:22;;;;;;;2.50;2.30;;;5.30;96.00;;;;;;5016018;28;20202;-89
2022/11/21 08:36:49;;;;;;;2.27;2.10;;;5.30;96.20;;;;;;5011892;28;20585;-89
2022/11/21 08:39:18;;;;;;;2.33;2.17;;;5.40;96.20;;;;;;5014904;28;20709;-89
2022/11/21 08:42:02;;;;;;;2.33;2.13;;;5.50;96.00;;;;;;5014999;28;20250;-89
2022/11/21 08:44:29;;;;;;;2.37;2.17;;;5.60;95.30;;;;;;5019221;28;20206;-89
2022/11/21 08:46:56;;;;;;;2.10;1.90;;;5.80;95.20;;;;;;5023942;28;20204;-89
2022/11/21 08:49:28;;;;;;;2.37;2.17;;;5.80;95.50;;;;;;5024854;28;20302;-88
2022/11/21 08:51:55;;;;;;;3.17;1.97;;;5.80;95.20;;;;;;5021584;28;20357;-89
2022/11/21 08:54:24;;;;;;;2.23;2.07;;;5.80;94.70;;;;;;5030567;28;20370;-89
2022/11/21 08:56:51;;;;;;;1.10;1.00;;;5.90;94.40;;;;;;5033433;28;20293;-88
2022/11/21 08:59:18;;;;;;;2.23;1.10;;;6.00;93.60;;;;;;5037915;28;20224;-86
2022/11/21 09:01:45;;;;;;;3.33;1.63;;;6.10;93.60;;;;;;5036651;28;20193;-88
2022/11/21 09:04:13;;;;;;;4.23;1.27;;;6.00;94.10;;;;;;5037115;28;20648;-89
2022/11/21 09:06:39;;;;;;;2.60;1.30;;;6.00;94.10;;;;;;5046001;28;20326;-89
2022/11/21 09:09:07;;;;;;;2.77;1.30;;;6.10;93.10;;;;;;5036574;28;20560;-90
2022/11/21 09:11:38;;;;;;;2.33;1.57;;;6.10;93.30;;;;;;5037441;28;20969;-89
2022/11/21 09:20:07;;;;;;;2.20;1.27;;;6.80;91.20;;;;;;5039080;28;20217;-89
2022/11/21 09:23:04;;;;;;;2.20;1.30;;;6.80;91.00;;;;;;5031412;28;20447;-90
2022/11/21 09:25:31;;;;;;;2.85;2.00;;;6.70;91.10;;;;;;5029453;28;20235;-89
2022/11/21 09:28:01;;;;;;;3.75;2.20;;;6.90;91.50;;;;;;5031273;28;20206;-89
2022/11/21 09:30:34;;;;;;;5.15;1.50;;;7.40;90.80;;;;;;5028693;28;20822;-90
2022/11/21 09:35:58;;;;;;;2.75;1.08;;;9.50;74.40;;;;;;5039858;28;20596;-90
2022/11/21 09:38:26;;;;;;;1.58;1.48;;;10.10;62.20;;;;;;5047014;28;20587;-90
2022/11/21 09:44:11;;;;;;;2.25;1.90;;;10.10;59.20;;;;;;5031189;28;20209;-90
2022/11/21 09:46:47;;;;;;;2.50;2.08;;;10.20;60.40;;;;;;5028216;28;20685;-91
2022/11/21 09:49:16;;;;;;;2.47;2.10;;;10.70;55.40;;;;;;5026382;28;20248;-85
2022/11/21 09:51:45;;;;;;;3.08;2.65;;;10.90;53.10;;;;;;5018371;28;20746;-90
2022/11/21 09:54:19;;;;;;;2.55;1.83;;;11.00;47.70;;;;;;5027267;28;20678;-87
2022/11/21 09:56:47;;;;;;;2.50;1.90;;;10.70;47.50;;;;;;5033860;28;20781;-86
2022/11/21 09:59:28;;;;;;;2.67;1.73;;;10.80;48.40;;;;;;5029722;28;20201;-87
2022/11/21 10:01:56;;;;;;;2.33;1.50;;;11.00;47.60;;;;;;5024230;28;20498;-89
2022/11/21 10:04:23;;;;;;;4.20;2.35;;;10.50;47.30;;;;;;5043742;28;20376;-87
2022/11/21 10:07:04;;;;;;;4.03;1.40;;;10.00;52.40;;;;;;5025644;28;20209;-88
2022/11/21 10:09:54;;;;;;;3.92;1.92;;;9.70;57.60;;;;;;5032984;28;20201;-88
2022/11/21 10:12:38;;;;;;;1.77;1.35;;;9.30;64.00;;;;;;5026461;28;20263;-84
2022/11/21 10:15:36;;;;;;;2.60;1.92;;;8.90;65.50;;;;;;5033529;28;20206;-87
2022/11/21 10:18:28;;;;;;;2.75;2.30;;;8.60;73.50;;;;;;5021039;28;20205;-87
2022/11/21 10:21:02;;;;;;;3.72;2.47;;;8.40;73.30;;;;;;5021012;28;20217;-87
2022/11/21 10:23:43;;;;;;;3.67;2.30;;;8.20;73.10;;;;;;5015213;28;20205;-87
2022/11/21 10:26:17;;;;;;;3.13;2.47;;;8.10;68.10;;;;;;5020342;28;20265;-88
2022/11/21 10:28:50;;;;;;;5.32;1.42;;;7.90;72.80;;;;;;5031956;28;20233;-87
2022/11/21 10:31:19;;;;;;;3.47;2.33;;;7.70;75.50;;;;;;5026703;28;20704;-88
2022/11/21 10:33:47;;;;;;;3.63;2.45;;;7.70;76.70;;;;;;5024300;28;20201;-88
2022/11/21 10:36:25;;;;;;;74.85;40.83;;;7.70;77.90;;;;;;5024008;28;20332;-88
2022/11/21 10:38:55;;;;;;;4.50;2.03;;;8.10;90.30;;;;;;5041209;28;20589;-87
2022/11/21 10:41:38;;;;;;;26.38;15.60;;;8.20;77.50;;;;;;5054157;28;20301;-87
2022/11/21 10:47:01;;;;;;;17.13;10.65;;;8.40;73.30;;;;;;5040700;28;20614;-89
2022/11/21 10:49:34;;;;;;;5.05;2.38;;;8.00;81.10;;;;;;5042563;28;20206;-88
2022/11/21 10:52:06;;;;;;;8.65;3.67;;;8.20;79.90;;;;;;5038897;28;20223;-86
2022/11/21 10:55:05;;;;;;;3.22;2.20;;;8.00;75.60;;;;;;5041807;28;20249;-89
2022/11/21 10:57:39;;;;;;;3.28;1.52;;;7.90;75.70;;;;;;5039816;28;20673;-89
2022/11/21 11:00:26;;;;;;;6.30;1.75;;;7.60;77.90;;;;;;5041346;28;20206;-87
2022/11/21 11:03:29;;;;;;;6.00;1.27;;;7.30;79.90;;;;;;5046288;28;20202;-89
2022/11/21 11:05:58;;;;;;;3.85;1.58;;;7.10;79.90;;;;;;5042265;28;20193;-87
2022/11/21 11:08:51;;;;;;;4.40;1.35;;;7.00;81.70;;;;;;5041856;28;20221;-88
2022/11/21 11:11:24;;;;;;;3.10;2.28;;;6.90;81.40;;;;;;5039498;28;20439;-89
2022/11/21 11:13:57;;;;;;;3.70;2.33;;;6.80;78.80;;;;;;5025605;28;20201;-87
2022/11/21 11:16:25;;;;;;;3.63;2.22;;;6.80;79.40;;;;;;5028254;28;20850;-90
2022/11/21 11:18:59;;;;;;;4.03;2.60;;;6.80;81.30;;;;;;5026894;28;20202;-88
2022/11/21 11:21:28;;;;;;;5.15;2.30;;;7.00;77.90;;;;;;5024762;28;20285;-87
2022/11/21 11:24:07;;;;;;;4.53;2.28;;;7.10;78.90;;;;;;5037025;28;20728;-89
2022/11/21 11:26:55;;;;;;;4.85;1.92;;;7.20;78.50;;;;;;5028338;28;20216;-92
2022/11/21 11:29:23;;;;;;;4.25;2.15;;;7.30;76.40;;;;;;5031997;28;20193;-89
2022/11/21 11:31:55;;;;;;;4.22;1.95;;;7.40;75.20;;;;;;5034114;28;20198;-90
2022/11/21 11:34:26;;;;;;;3.60;2.25;;;7.50;72.30;;;;;;5031972;28;20208;-87
2022/11/21 11:37:06;;;;;;;3.17;1.30;;;7.60;67.00;;;;;;5036712;28;20230;-84
2022/11/21 11:39:39;;;;;;;2.75;1.35;;;7.70;70.70;;;;;;5044599;28;20201;-87
2022/11/21 11:48:27;;;;;;;3.88;1.55;;;7.70;68.90;;;;;;5043120;28;20204;-87
2022/11/21 11:51:00;;;;;;;2.70;1.33;;;7.70;64.40;;;;;;5048712;28;20294;-88
2022/11/21 11:53:35;;;;;;;3.83;1.27;;;7.80;66.50;;;;;;5046802;28;20236;-87
2022/11/21 11:56:06;;;;;;;4.45;1.92;;;7.80;68.10;;;;;;5045431;28;20291;-88
2022/11/21 11:58:38;;;;;;;6.68;1.60;;;7.80;67.90;;;;;;5041397;28;20215;-87
2022/11/21 12:01:11;;;;;;;3.25;1.38;;;7.90;65.60;;;;;;5048104;28;20202;-87
2022/11/21 12:03:43;;;;;;;3.42;1.20;;;8.00;66.30;;;;;;5045394;28;20229;-86
2022/11/21 12:06:26;;;;;;;2.70;1.48;;;8.20;62.20;;;;;;5051380;28;20201;-88
2022/11/21 12:08:54;;;;;;;7.22;1.63;;;8.30;59.90;;;;;;5048406;28;20259;-88
2022/11/21 12:17:27;;;;;;;1.98;1.30;;;8.80;54.30;;;;;;5046999;28;20275;-89
2022/11/21 12:22:54;;;;;;;3.53;1.30;;;9.40;55.80;;;;;;5041093;28;20210;-87
2022/11/21 12:25:25;;;;;;;1.60;0.95;;;9.80;55.90;;;;;;5042682;28;20630;-87
2022/11/21 12:27:55;;;;;;;2.55;1.30;;;9.80;57.40;;;;;;5039880;28;20301;-88
2022/11/21 12:30:58;;;;;;;4.78;1.55;;;9.90;57.40;;;;;;5042987;28;20337;-89
2022/11/21 12:33:41;;;;;;;2.10;1.10;;;9.80;58.40;;;;;;4967429;28;20850;-87
2022/11/21 12:36:27;;;;;;;2.63;1.40;;;9.60;57.90;;;;;;5033793;28;20224;-87
2022/11/21 12:39:24;;;;;;;1.98;1.20;;;9.40;57.50;;;;;;5039967;28;20214;-89
2022/11/21 12:45:20;;;;;;;2.33;1.40;;;9.30;64.30;;;;;;5037891;28;20204;-87
2022/11/21 12:59:56;;;;;;;2.80;0.90;;;9.80;56.90;;;;;;5045377;28;20194;-88
2022/11/21 13:02:37;;;;;;;1.63;1.30;;;10.00;52.00;;;;;;5051707;28;20197;-88
2022/11/21 13:05:10;;;;;;;3.42;1.30;;;10.10;49.10;;;;;;5041131;28;21141;-87
2022/11/21 13:07:37;;;;;;;3.15;1.50;;;10.30;47.20;;;;;;5050347;28;20212;-88
2022/11/21 13:10:17;;;;;;;5.22;1.55;;;10.30;47.10;;;;;;5041714;28;20352;-88
2022/11/21 13:13:03;;;;;;;5.03;1.20;;;10.10;46.90;;;;;;5049922;28;20212;-87
2022/11/21 13:16:00;;;;;;;2.00;1.08;;;10.00;46.80;;;;;;5053010;28;20283;-88
2022/11/21 13:18:34;;;;;;;2.58;1.00;;;9.80;48.20;;;;;;5053400;28;20256;-88
2022/11/21 13:21:01;;;;;;;1.77;1.00;;;9.60;46.30;;;;;;5052258;28;20198;-87
2022/11/21 13:23:39;;;;;;;3.78;1.38;;;9.40;47.80;;;;;;5049204;28;20618;-88
2022/11/21 13:26:43;;;;;;;4.13;1.30;;;9.20;52.10;;;;;;5050158;28;20233;-89
2022/11/21 13:29:13;;;;;;;3.28;1.10;;;9.10;52.70;;;;;;5006840;28;20195;-88
2022/11/21 13:31:40;;;;;;;2.20;1.00;;;9.00;53.00;;;;;;5002975;28;20750;-87
2022/11/21 13:34:35;;;;;;;1.88;1.15;;;9.00;53.50;;;;;;5009119;28;20246;-87
2022/11/21 13:37:02;;;;;;;1.92;1.15;;;8.90;53.70;;;;;;5002562;28;20306;-87
2022/11/21 13:39:31;;;;;;;1.63;1.00;;;8.90;51.50;;;;;;5006368;28;20195;-87
2022/11/21 13:44:58;;;;;;;3.13;1.40;;;8.80;51.90;;;;;;5006811;28;20237;-87
2022/11/21 13:47:58;;;;;;;2.72;1.10;;;8.90;53.10;;;;;;5005284;28;20655;-88
2022/11/21 13:50:40;;;;;;;2.92;1.30;;;8.90;54.00;;;;;;5003579;28;20206;-87
2022/11/21 13:53:22;;;;;;;2.45;1.13;;;8.90;47.40;;;;;;5003822;28;20596;-87
2022/11/21 13:55:56;;;;;;;1.58;1.20;;;8.90;46.20;;;;;;5007908;28;20223;-88
2022/11/21 13:58:45;;;;;;;2.35;1.05;;;8.90;45.60;;;;;;5001839;28;20299;-89
2022/11/21 14:01:45;;;;;;;2.85;1.10;;;8.90;44.60;;;;;;5005967;28;20215;-88
2022/11/21 14:04:52;;;;;;;1.92;1.20;;;8.90;42.80;;;;;;4996416;28;20206;-90
2022/11/21 14:07:36;;;;;;;2.97;1.10;;;8.80;42.80;;;;;;5049602;28;20284;-88
2022/11/21 14:10:06;;;;;;;2.75;1.20;;;8.70;43.10;;;;;;5040931;28;20206;-87
2022/11/21 14:12:35;;;;;;;2.35;1.13;;;8.50;47.20;;;;;;5045327;28;20197;-87
2022/11/21 14:15:20;;;;;;;1.92;1.50;;;8.30;51.50;;;;;;5045301;28;20238;-87